MDT,Max TemperatureF,Mean TemperatureF,Min TemperatureF,Max Dew PointF,MeanDew PointF,Min DewpointF,Max Humidity, Mean Humidity, Min Humidity, Max Sea Level PressureIn, Mean Sea Level PressureIn, Min Sea Level PressureIn, Max VisibilityMiles, Mean VisibilityMiles, Min VisibilityMiles, Max Wind SpeedMPH, Mean Wind SpeedMPH, Max Gust SpeedMPH,PrecipitationIn, CloudCover, Events, WindDirDegrees
2014-3-1,-13,-21,-29,-24,-29,-35,76,66,53,30.68,30.63,30.58,20,16,15,15,9,18,0.00,1,,150
2014-3-2,-7,-14,-20,-17,-21,-27,77,69,59,30.49,30.39,29.88,15,9,3,21,14,26,0.00,7,Snow,140
2014-3-3,-2,-6,-11,-11,-14,-17,84,72,60,30.17,30.12,30.07,20,16,15,13,9,18,0.00,6,,141
2014-3-4,6,-2,-11,-6,-10,-17,84,70,56,30.17,30.15,30.09,20,14,2,9,4,,0.00,4,Snow,177
2014-3-5,8,-2,-11,-2,-7,-17,85,74,61,30.12,30.02,29.94,20,18,15,10,3,,0.00,3,,146
2014-3-6,8,4,0,1,-5,-11,85,71,40,30.19,30.06,29.95,20,9,2,13,8,,0.00,6,Snow,13
2014-3-7,33,16,-2,23,8,-8,86,71,54,30.26,30.18,30.12,20,16,15,14,5,,0.00,3,,161
2014-3-8,46,40,33,28,25,21,70,55,40,30.00,29.81,29.59,15,15,15,25,12,34,0.00,7,,246
2014-3-9,46,40,30,32,28,21,69,59,50,29.83,29.66,29.51,15,15,15,26,17,36,0.00,5,,262
2014-3-10,41,34,26,27,23,19,86,66,42,30.16,29.97,29.87,15,15,15,10,7,,0.00,6,,195
2014-3-11,44,32,21,23,19,14,86,55,34,30.41,30.32,30.27,15,15,15,20,7,,0.00,4,,270
2014-3-12,53,44,35,27,20,16,60,41,26,30.22,30.06,29.79,20,16,15,24,12,34,0.00,3,,298
2014-3-13,39,34,26,25,22,18,75,61,48,30.01,29.96,29.84,15,15,15,17,8,18,0.00,3,,122
2014-3-14,46,36,26,27,22,14,80,53,38,29.92,29.79,29.69,15,15,15,14,6,,0.00,7,,227
2014-3-15,46,34,23,25,21,16,100,54,29,30.22,30.11,29.84,15,15,15,22,10,28,0.00,5,,244
2014-3-16,50,39,28,32,25,21,93,61,34,29.93,29.81,29.60,20,16,15,31,12,39,0.00,5,,288
2014-3-17,41,34,28,28,23,18,93,69,45,30.01,29.87,29.62,20,10,1,22,10,25,0.00,8,Snow-Hail,322
2014-3-18,41,30,19,25,18,14,100,61,33,30.14,30.08,30.01,20,11,1,21,8,26,0.00,3,Snow,279
2014-3-19,44,34,24,19,17,14,69,47,31,29.96,29.84,29.63,15,15,15,18,10,25,0.00,6,,258
2014-3-20,32,23,14,27,21,9,93,83,64,30.43,30.04,29.78,15,4,1,29,18,37,0.00,8,Snow,347
2014-3-21,14,10,5,7,4,1,85,75,62,30.66,30.60,30.38,12,7,2,12,5,,0.00,6,Snow,107
2014-3-22,14,10,5,9,4,1,85,76,62,30.63,30.52,30.15,20,10,2,16,11,23,0.00,7,Snow,152
2014-3-23,19,8,-2,7,4,-6,92,71,57,30.58,30.47,30.30,15,9,2,10,6,,0.00,7,Snow,358
2014-3-24,17,12,8,9,4,0,85,66,53,30.68,30.61,30.48,20,17,6,12,6,,0.00,7,Snow,62
2014-3-25,23,18,12,16,13,9,93,83,74,30.17,29.97,29.82,15,8,3,9,6,,0.00,8,,101
2014-3-26,19,16,12,14,12,10,93,81,73,29.91,29.83,29.76,10,5,2,12,9,,0.00,8,Snow,31
2014-3-27,21,16,12,14,11,9,92,82,68,30.11,30.01,29.91,4,3,2,12,7,,0.00,8,Snow,106
2014-3-28,26,19,12,18,14,10,93,82,69,30.10,30.00,29.84,6,4,3,15,11,17,0.00,7,Snow,151
2014-3-29,23,16,10,19,17,7,93,89,85,29.92,29.80,29.72,20,8,4,9,6,,0.00,6,,17
2014-3-30,19,14,10,18,12,7,93,83,73,30.26,30.12,29.97,7,3,0,15,10,,0.00,8,Snow,86
2014-3-31,17,12,6,12,8,5,92,84,73,30.27,30.21,30.16,15,8,2,15,9,,0.00,8,Snow,139